Time;durP1;ratioP1;P1;durP2;ratioP2;P2;SDS_P1;SDS_P2;PMS_P1;PMS_P2;Temp;Humidity;BMP_temperature;BMP_pressure;BME280_temperature;BME280_humidity;BME280_pressure;Samples;Min_cycle;Max_cycle;Signal;HPM_P1;HPM_P2
2023/10/28 00:00:32;;;;;;;7.97;2.10;;;;;10.50;98980.00;;;;10508215;28;20189;-72
2023/10/28 00:05:33;;;;;;;6.13;2.00;;;;;10.50;98974.00;;;;10542549;28;20202;-72
2023/10/28 00:10:36;;;;;;;9.33;2.40;;;;;10.50;98971.00;;;;10538293;27;21057;-72
2023/10/28 00:15:39;;;;;;;9.50;2.27;;;;;10.50;98956.00;;;;10543455;28;20197;-72
2023/10/28 00:20:41;;;;;;;7.53;2.40;;;;;10.50;98965.00;;;;10532290;28;20180;-72
2023/10/28 00:25:43;;;;;;;5.60;2.30;;;;;10.50;98962.00;;;;10534221;28;20211;-71
2023/10/28 00:30:45;;;;;;;12.87;2.73;;;;;10.40;98947.00;;;;10538207;28;20871;-72
2023/10/28 00:35:47;;;;;;;9.87;2.77;;;;;10.40;98955.00;;;;10516634;28;20223;-70
2023/10/28 00:40:50;;;;;;;7.20;2.40;;;;;10.50;98953.00;;;;10546702;28;20193;-70
2023/10/28 00:45:54;;;;;;;5.60;2.60;;;;;10.50;98948.00;;;;10545262;28;20957;-70
2023/10/28 00:50:57;;;;;;;6.70;2.70;;;;;10.50;98957.00;;;;10538063;28;20199;-71
2023/10/28 00:56:01;;;;;;;3.57;2.00;;;;;10.40;98949.00;;;;10549297;28;20196;-70
2023/10/28 01:01:03;;;;;;;6.27;2.10;;;;;10.20;98953.00;;;;10545667;28;20199;-72
2023/10/28 01:06:09;;;;;;;7.47;2.43;;;;;10.10;98952.00;;;;10544488;28;20208;-71
2023/10/28 01:11:12;;;;;;;5.60;2.20;;;;;10.00;98950.00;;;;10545400;28;20193;-69
2023/10/28 01:16:14;;;;;;;4.63;2.60;;;;;10.00;98951.00;;;;10539706;28;20199;-72
2023/10/28 01:21:17;;;;;;;4.27;2.30;;;;;10.00;98954.00;;;;10511626;28;20908;-70
2023/10/28 01:26:19;;;;;;;6.77;2.77;;;;;10.00;98949.00;;;;10534171;28;20295;-70
2023/10/28 01:31:21;;;;;;;4.53;2.17;;;;;10.00;98938.00;;;;10543456;28;20204;-71
2023/10/28 01:36:23;;;;;;;6.40;3.10;;;;;10.00;98942.00;;;;10544990;28;20238;-70
2023/10/28 01:41:26;;;;;;;6.20;3.30;;;;;10.10;98938.00;;;;10539467;28;20184;-70
2023/10/28 01:46:29;;;;;;;6.83;2.73;;;;;10.10;98930.00;;;;10524434;28;20535;-71
2023/10/28 01:51:31;;;;;;;6.80;3.03;;;;;10.00;98934.00;;;;10535591;28;20196;-69
2023/10/28 01:56:33;;;;;;;4.93;3.10;;;;;10.10;98933.00;;;;10533067;28;20257;-69
2023/10/28 02:01:35;;;;;;;6.60;3.30;;;;;10.10;98929.00;;;;10540986;28;20216;-69
2023/10/28 02:06:38;;;;;;;8.90;2.87;;;;;10.10;98923.00;;;;10504621;28;20666;-69
2023/10/28 02:11:39;;;;;;;4.57;2.57;;;;;10.10;98930.00;;;;10540895;28;20254;-69
2023/10/28 02:16:41;;;;;;;10.27;2.93;;;;;10.20;98928.00;;;;10537800;28;20712;-69
2023/10/28 02:21:44;;;;;;;9.43;3.10;;;;;10.30;98932.00;;;;10521481;28;20197;-69
2023/10/28 02:26:46;;;;;;;10.73;2.70;;;;;10.30;98925.00;;;;10537093;28;20593;-69
2023/10/28 02:31:48;;;;;;;9.93;2.40;;;;;10.40;98921.00;;;;10541870;28;20266;-71
2023/10/28 02:36:50;;;;;;;4.13;2.27;;;;;10.40;98927.00;;;;10524445;28;20201;-70
2023/10/28 02:41:55;;;;;;;8.77;2.93;;;;;10.40;98914.00;;;;10520816;28;20528;-69
2023/10/28 02:46:58;;;;;;;9.45;2.67;;;;;10.40;98905.00;;;;10535408;28;20886;-69
2023/10/28 02:52:01;;;;;;;8.87;2.90;;;;;10.50;98904.00;;;;10529418;28;20196;-75
2023/10/28 02:57:03;;;;;;;9.63;2.87;;;;;10.50;98898.00;;;;10535804;28;20759;-75
2023/10/28 03:02:05;;;;;;;11.13;3.13;;;;;10.50;98899.00;;;;10554223;28;20192;-74
2023/10/28 03:07:07;;;;;;;10.17;3.07;;;;;10.60;98896.00;;;;10538996;28;20841;-76
2023/10/28 03:12:12;;;;;;;10.53;3.57;;;;;10.60;98886.00;;;;10556970;27;20195;-75
2023/10/28 03:17:17;;;;;;;7.10;3.10;;;;;10.60;98880.00;;;;10543969;28;20249;-76
2023/10/28 03:22:19;;;;;;;8.90;2.70;;;;;10.60;98884.00;;;;10556963;28;20701;-75
2023/10/28 03:27:21;;;;;;;8.03;3.23;;;;;10.60;98893.00;;;;10558614;27;20251;-75
2023/10/28 03:32:23;;;;;;;10.47;3.07;;;;;10.60;98882.00;;;;10522825;28;20235;-75
2023/10/28 03:37:25;;;;;;;6.53;2.50;;;;;10.60;98883.00;;;;10553110;28;20569;-76
2023/10/28 03:42:27;;;;;;;12.93;2.73;;;;;10.60;98879.00;;;;10542393;27;20584;-75
2023/10/28 03:47:29;;;;;;;5.73;2.60;;;;;10.60;98889.00;;;;10520474;28;20192;-74
2023/10/28 03:52:32;;;;;;;13.60;3.20;;;;;10.60;98888.00;;;;10539241;28;20286;-74
2023/10/28 03:57:34;;;;;;;9.50;2.53;;;;;10.70;98880.00;;;;10533119;27;20216;-76
2023/10/28 04:02:37;;;;;;;7.33;2.57;;;;;10.70;98881.00;;;;10529414;28;20185;-72
2023/10/28 04:07:38;;;;;;;6.07;2.67;;;;;10.70;98878.00;;;;10544099;28;20689;-72
2023/10/28 04:12:40;;;;;;;9.00;2.40;;;;;10.80;98875.00;;;;10537433;27;20189;-72
2023/10/28 04:17:42;;;;;;;5.47;2.53;;;;;10.70;98880.00;;;;10541880;28;20185;-72
2023/10/28 04:22:44;;;;;;;6.03;2.70;;;;;10.70;98883.00;;;;10544749;28;20641;-71
2023/10/28 04:27:46;;;;;;;6.13;2.40;;;;;10.70;98865.00;;;;10532360;27;20196;-72
2023/10/28 04:32:48;;;;;;;6.33;2.30;;;;;10.70;98879.00;;;;10554665;28;20196;-72
2023/10/28 04:37:50;;;;;;;9.75;2.70;;;;;10.80;98880.00;;;;10553062;27;20202;-72
2023/10/28 04:42:52;;;;;;;12.43;2.63;;;;;10.80;98869.00;;;;10535188;27;20200;-72
2023/10/28 04:47:54;;;;;;;9.43;2.53;;;;;10.80;98876.00;;;;10521561;28;20297;-72
2023/10/28 04:52:56;;;;;;;7.77;2.47;;;;;10.80;98867.00;;;;10536562;28;20677;-72
2023/10/28 04:57:58;;;;;;;12.63;2.50;;;;;10.90;98864.00;;;;10536140;28;20184;-72
2023/10/28 05:03:00;;;;;;;9.93;2.70;;;;;10.90;98871.00;;;;10540001;28;20185;-73
2023/10/28 05:08:02;;;;;;;10.20;2.47;;;;;11.00;98859.00;;;;10536409;27;20192;-72
2023/10/28 05:13:04;;;;;;;12.90;2.30;;;;;11.00;98855.00;;;;10538824;28;20189;-74
2023/10/28 05:18:06;;;;;;;7.27;2.47;;;;;11.00;98853.00;;;;10534568;28;20195;-75
2023/10/28 05:23:08;;;;;;;14.02;2.80;;;;;11.00;98857.00;;;;10535308;28;20227;-75
2023/10/28 05:28:10;;;;;;;17.40;2.40;;;;;10.90;98850.00;;;;10557246;28;20184;-74
2023/10/28 05:33:13;;;;;;;9.43;2.27;;;;;10.80;98852.00;;;;10539479;28;20239;-76
2023/10/28 05:38:15;;;;;;;13.33;2.37;;;;;10.80;98854.00;;;;10549185;28;20192;-77
2023/10/28 05:43:18;;;;;;;6.27;2.23;;;;;10.70;98846.00;;;;10555100;28;20177;-75
2023/10/28 05:48:20;;;;;;;13.85;2.63;;;;;10.70;98854.00;;;;10522444;28;20897;-76
2023/10/28 05:53:22;;;;;;;9.63;2.67;;;;;10.60;98855.00;;;;10547894;28;20278;-75
2023/10/28 05:58:24;;;;;;;12.13;2.90;;;;;10.70;98857.00;;;;10569937;28;20199;-75
2023/10/28 06:03:28;;;;;;;14.80;2.77;;;;;10.70;98865.00;;;;10561526;27;20247;-75
2023/10/28 06:08:30;;;;;;;12.53;2.60;;;;;10.70;98866.00;;;;10555117;27;20215;-76
2023/10/28 06:13:32;;;;;;;10.03;2.47;;;;;10.70;98869.00;;;;10559809;27;20662;-75
2023/10/28 06:18:34;;;;;;;14.63;2.43;;;;;10.70;98865.00;;;;10544201;27;20276;-76
2023/10/28 06:23:36;;;;;;;8.77;2.10;;;;;10.70;98862.00;;;;10557448;27;20208;-72
2023/10/28 06:28:38;;;;;;;13.53;2.57;;;;;10.80;98867.00;;;;10545137;27;20291;-72
2023/10/28 06:33:40;;;;;;;9.20;2.40;;;;;10.80;98876.00;;;;10552418;28;20200;-72
2023/10/28 06:38:42;;;;;;;11.35;2.63;;;;;10.90;98873.00;;;;10556403;28;20622;-72
2023/10/28 06:43:44;;;;;;;12.17;2.33;;;;;10.90;98892.00;;;;10536521;27;20557;-72
2023/10/28 06:48:46;;;;;;;8.27;1.97;;;;;11.00;98894.00;;;;10552719;28;20276;-72
2023/10/28 06:53:48;;;;;;;9.40;2.20;;;;;11.10;98903.00;;;;10546188;28;20189;-72
2023/10/28 06:58:51;;;;;;;8.57;2.10;;;;;11.10;98914.00;;;;10549106;28;20196;-73
2023/10/28 07:03:53;;;;;;;10.38;2.20;;;;;11.10;98910.00;;;;10543205;28;20243;-73
2023/10/28 07:08:55;;;;;;;6.47;1.77;;;;;11.20;98911.00;;;;10550761;28;20212;-73
2023/10/28 07:13:57;;;;;;;13.70;2.90;;;;;11.30;98918.00;;;;10549150;27;20197;-73
2023/10/28 07:18:59;;;;;;;13.83;2.53;;;;;11.40;98933.00;;;;10546715;28;20181;-73
2023/10/28 07:24:01;;;;;;;7.95;2.15;;;;;11.50;98935.00;;;;10529001;28;20238;-73
2023/10/28 07:29:06;;;;;;;9.95;2.33;;;;;11.60;98948.00;;;;10532912;28;20793;-72
2023/10/28 07:34:08;;;;;;;10.33;2.37;;;;;11.70;98944.00;;;;10532949;28;20295;-71
2023/10/28 07:39:10;;;;;;;8.35;2.03;;;;;12.00;98952.00;;;;10537067;28;20180;-69
2023/10/28 07:44:11;;;;;;;10.70;3.05;;;;;12.20;98963.00;;;;10517383;27;20212;-71
2023/10/28 07:49:14;;;;;;;6.43;1.60;;;;;12.30;98964.00;;;;10516131;28;20849;-69
2023/10/28 07:54:15;;;;;;;10.43;2.20;;;;;12.40;98971.00;;;;10518023;28;20270;-69
2023/10/28 07:59:17;;;;;;;9.43;2.35;;;;;12.60;98968.00;;;;10523877;28;20797;-71
2023/10/28 08:04:19;;;;;;;6.28;1.65;;;;;12.70;98987.00;;;;10534044;28;20208;-70
2023/10/28 08:09:22;;;;;;;3.97;1.55;;;;;12.80;98990.00;;;;10542015;28;20184;-69
2023/10/28 08:14:25;;;;;;;6.88;2.30;;;;;13.20;98991.00;;;;10530310;27;20192;-70
2023/10/28 08:19:29;;;;;;;7.95;1.70;;;;;13.70;98993.00;;;;10530412;27;20274;-71
2023/10/28 08:24:31;;;;;;;8.30;2.20;;;;;13.70;98989.00;;;;10537918;28;20287;-71
2023/10/28 08:29:33;;;;;;;5.25;1.45;;;;;13.40;98991.00;;;;10532668;28;20900;-71
2023/10/28 08:34:36;;;;;;;5.28;1.10;;;;;13.00;98997.00;;;;10525893;28;20319;-70
2023/10/28 08:39:37;;;;;;;8.93;1.75;;;;;12.70;99010.00;;;;10538247;27;20216;-70
2023/10/28 08:44:40;;;;;;;6.05;1.52;;;;;12.30;99018.00;;;;10543333;27;20223;-71
2023/10/28 08:49:46;;;;;;;6.70;1.67;;;;;12.50;99017.00;;;;10540602;27;20188;-72
2023/10/28 08:54:49;;;;;;;7.00;1.58;;;;;12.80;99019.00;;;;10536008;28;20201;-72
2023/10/28 08:59:53;;;;;;;4.85;1.40;;;;;13.10;99033.00;;;;10536294;28;20885;-71
2023/10/28 09:04:55;;;;;;;5.45;1.73;;;;;13.30;99029.00;;;;10541054;28;20219;-71
2023/10/28 09:09:58;;;;;;;7.53;1.63;;;;;13.50;99034.00;;;;10514323;28;20832;-71
2023/10/28 09:15:00;;;;;;;7.07;2.05;;;;;13.80;99041.00;;;;10540213;28;20550;-72
2023/10/28 09:20:09;;;;;;;6.78;1.77;;;;;13.80;99039.00;;;;10545199;28;20702;-71
2023/10/28 09:25:14;;;;;;;10.25;2.15;;;;;14.30;99040.00;;;;10534890;28;20212;-71
2023/10/28 09:30:17;;;;;;;8.82;2.33;;;;;14.90;99043.00;;;;10535214;28;20196;-72
2023/10/28 09:35:20;;;;;;;8.48;2.22;;;;;15.20;99060.00;;;;10543811;28;21010;-71
2023/10/28 09:40:23;;;;;;;8.65;2.20;;;;;15.00;99055.00;;;;10526575;27;20813;-72
2023/10/28 09:45:25;;;;;;;9.27;2.10;;;;;15.20;99055.00;;;;10536729;28;20200;-72
2023/10/28 09:50:30;;;;;;;15.95;2.88;;;;;15.70;99049.00;;;;10532309;27;20220;-72
2023/10/28 09:55:35;;;;;;;9.43;2.50;;;;;15.70;99056.00;;;;10549492;27;20199;-73
2023/10/28 10:00:37;;;;;;;9.20;2.67;;;;;15.60;99049.00;;;;10509899;27;20215;-73
2023/10/28 10:05:43;;;;;;;7.85;2.55;;;;;15.00;99063.00;;;;10531959;27;20282;-73
2023/10/28 10:10:45;;;;;;;14.73;3.35;;;;;14.70;99051.00;;;;10559349;27;20200;-73
2023/10/28 10:15:54;;;;;;;9.40;2.70;;;;;14.70;99063.00;;;;10525333;27;20193;-73
2023/10/28 10:21:12;;;;;;;11.23;2.95;;;;;14.90;99056.00;;;;10531698;27;20181;-73
2023/10/28 10:26:29;;;;;;;10.55;2.92;;;;;15.10;99054.00;;;;10547804;28;20212;-73
2023/10/28 10:31:33;;;;;;;13.18;3.10;;;;;15.10;99058.00;;;;10544972;28;20185;-73
2023/10/28 10:36:43;;;;;;;13.88;3.20;;;;;16.00;99060.00;;;;10544316;28;20699;-73
2023/10/28 10:41:52;;;;;;;14.02;3.20;;;;;16.70;99059.00;;;;10542668;28;20188;-74
2023/10/28 10:46:58;;;;;;;10.25;2.53;;;;;17.60;99057.00;;;;10551024;27;20212;-73
2023/10/28 10:52:01;;;;;;;10.05;2.70;;;;;17.10;99051.00;;;;10554167;27;20203;-73
2023/10/28 10:57:03;;;;;;;12.82;3.47;;;;;16.40;99061.00;;;;10555869;27;20237;-72
2023/10/28 11:02:06;;;;;;;15.25;3.08;;;;;15.70;99058.00;;;;10550226;27;20185;-71
2023/10/28 11:07:09;;;;;;;13.88;3.00;;;;;16.10;99052.00;;;;10545945;27;20210;-71
2023/10/28 11:12:11;;;;;;;12.68;2.60;;;;;16.20;99064.00;;;;10538751;27;20196;-71
2023/10/28 11:17:13;;;;;;;11.27;2.88;;;;;15.70;99048.00;;;;10555373;27;20292;-72
2023/10/28 11:22:16;;;;;;;13.23;3.15;;;;;15.40;99052.00;;;;10555184;27;20208;-71
2023/10/28 11:27:19;;;;;;;14.35;3.50;;;;;15.20;99044.00;;;;10548628;27;20302;-72
2023/10/28 11:32:21;;;;;;;13.43;3.38;;;;;15.20;99060.00;;;;10536123;27;20212;-72
2023/10/28 11:37:23;;;;;;;12.18;3.05;;;;;15.30;99053.00;;;;10540515;27;20893;-72
2023/10/28 11:42:27;;;;;;;10.60;2.28;;;;;15.40;99043.00;;;;10546941;28;20276;-72
2023/10/28 11:47:29;;;;;;;9.20;2.63;;;;;16.20;99065.00;;;;10543040;28;20595;-72
2023/10/28 11:52:31;;;;;;;12.68;3.00;;;;;16.20;99069.00;;;;10526654;27;20270;-72
2023/10/28 11:57:33;;;;;;;9.63;3.03;;;;;16.90;99065.00;;;;10539547;28;20291;-72
2023/10/28 12:02:35;;;;;;;10.43;2.60;;;;;16.40;99067.00;;;;10530584;28;20279;-72
2023/10/28 12:07:37;;;;;;;13.75;3.05;;;;;16.70;99068.00;;;;10545295;28;20206;-71
2023/10/28 12:12:39;;;;;;;14.07;3.17;;;;;17.30;99082.00;;;;10543132;28;20192;-69
2023/10/28 12:17:42;;;;;;;11.65;3.00;;;;;16.80;99084.00;;;;10537685;28;20196;-71
2023/10/28 12:22:45;;;;;;;8.88;2.35;;;;;17.50;99074.00;;;;10542195;28;20238;-70
2023/10/28 12:27:46;;;;;;;11.40;2.40;;;;;17.30;99072.00;;;;10540631;28;20208;-70
2023/10/28 12:32:50;;;;;;;8.40;2.40;;;;;17.20;99070.00;;;;10539584;28;20200;-72
2023/10/28 12:37:52;;;;;;;11.60;2.40;;;;;18.20;99075.00;;;;10538482;27;20685;-71
2023/10/28 12:42:54;;;;;;;10.25;2.83;;;;;17.40;99070.00;;;;10535653;27;20594;-70
2023/10/28 12:47:56;;;;;;;8.18;2.65;;;;;16.40;99069.00;;;;10541761;28;20216;-71
2023/10/28 12:52:58;;;;;;;20.33;4.05;;;;;15.90;99062.00;;;;10522350;28;20188;-69
2023/10/28 12:58:00;;;;;;;10.85;3.05;;;;;16.20;99065.00;;;;10539494;28;20188;-71
2023/10/28 13:03:04;;;;;;;8.55;2.50;;;;;16.20;99068.00;;;;10496954;28;20288;-69
2023/10/28 13:08:06;;;;;;;12.43;3.20;;;;;16.20;99070.00;;;;10518677;28;20216;-71
2023/10/28 13:13:07;;;;;;;9.73;2.72;;;;;15.70;99059.00;;;;10536066;28;20216;-70
2023/10/28 13:18:11;;;;;;;9.65;2.47;;;;;15.70;99074.00;;;;10528013;28;20197;-70
2023/10/28 13:23:13;;;;;;;11.13;2.78;;;;;16.00;99074.00;;;;10540937;28;20212;-74
2023/10/28 13:28:15;;;;;;;12.32;2.75;;;;;16.00;99072.00;;;;10520055;28;21017;-74
2023/10/28 13:33:16;;;;;;;14.07;3.28;;;;;15.80;99072.00;;;;10550786;28;20203;-75
2023/10/28 13:38:19;;;;;;;11.23;2.40;;;;;15.50;99069.00;;;;10543835;28;20740;-74
2023/10/28 13:43:20;;;;;;;9.57;2.30;;;;;15.50;99071.00;;;;10544216;28;20287;-73
2023/10/28 13:48:22;;;;;;;8.82;2.00;;;;;15.30;99074.00;;;;10545772;28;20227;-74
2023/10/28 13:53:24;;;;;;;6.82;2.33;;;;;15.50;99074.00;;;;10544129;28;20193;-75
2023/10/28 13:58:28;;;;;;;8.85;2.22;;;;;15.60;99078.00;;;;10543526;28;20180;-74
2023/10/28 14:03:30;;;;;;;9.48;2.38;;;;;15.70;99075.00;;;;10542303;28;20264;-74
2023/10/28 14:08:32;;;;;;;10.48;2.40;;;;;16.10;99065.00;;;;10538209;28;20192;-75
2023/10/28 14:13:40;;;;;;;9.95;2.88;;;;;15.80;99067.00;;;;10540376;28;20708;-74
2023/10/28 14:18:48;;;;;;;8.00;2.05;;;;;15.40;99064.00;;;;10547302;28;20183;-74
2023/10/28 14:23:51;;;;;;;6.43;1.80;;;;;15.10;99061.00;;;;10544199;28;20196;-74
2023/10/28 14:28:53;;;;;;;10.23;2.20;;;;;15.10;99058.00;;;;10553476;28;20234;-75
2023/10/28 14:33:57;;;;;;;8.00;2.10;;;;;14.90;99059.00;;;;10542349;28;20836;-72
2023/10/28 14:38:59;;;;;;;8.40;2.50;;;;;14.60;99065.00;;;;10530587;28;20242;-72
2023/10/28 14:44:02;;;;;;;6.80;1.80;;;;;14.50;99060.00;;;;10543273;28;20180;-72
2023/10/28 14:49:04;;;;;;;8.57;2.53;;;;;14.30;99057.00;;;;10521724;28;20216;-72
2023/10/28 14:54:06;;;;;;;12.27;2.55;;;;;14.30;99043.00;;;;10542215;28;20197;-72
2023/10/28 14:59:08;;;;;;;6.65;2.03;;;;;14.30;99033.00;;;;10531624;28;20735;-71
2023/10/28 15:04:10;;;;;;;8.52;2.38;;;;;14.20;99023.00;;;;10545251;28;20181;-72
2023/10/28 15:09:12;;;;;;;4.20;1.50;;;;;14.10;99014.00;;;;10551644;28;20213;-72
2023/10/28 15:14:14;;;;;;;3.70;1.85;;;;;14.10;98998.00;;;;10543365;28;20802;-73
2023/10/28 15:19:16;;;;;;;5.35;1.55;;;;;14.00;99003.00;;;;10537468;28;20188;-73
2023/10/28 15:24:18;;;;;;;9.02;1.70;;;;;13.90;98991.00;;;;10543443;28;20307;-72
2023/10/28 15:29:20;;;;;;;5.10;1.27;;;;;13.80;99008.00;;;;10524873;28;20211;-72
2023/10/28 15:34:22;;;;;;;5.00;1.70;;;;;13.60;99004.00;;;;10533221;28;20215;-72
2023/10/28 15:39:24;;;;;;;5.20;1.65;;;;;13.50;98979.00;;;;10547930;28;20842;-72
2023/10/28 15:44:25;;;;;;;2.55;1.33;;;;;13.50;98967.00;;;;10547371;28;20208;-76
2023/10/28 15:49:27;;;;;;;4.88;1.30;;;;;13.30;98992.00;;;;10546630;28;20224;-77
2023/10/28 15:54:30;;;;;;;7.05;1.20;;;;;13.10;98990.00;;;;10550308;28;20289;-76
2023/10/28 15:59:32;;;;;;;4.75;1.38;;;;;12.90;98988.00;;;;10545087;28;20279;-76
2023/10/28 16:04:34;;;;;;;6.43;1.70;;;;;12.80;98979.00;;;;10546735;28;20280;-75
2023/10/28 16:09:38;;;;;;;10.07;2.10;;;;;12.70;98978.00;;;;10526155;28;20327;-75
2023/10/28 16:14:40;;;;;;;4.32;1.30;;;;;12.60;98970.00;;;;10553748;28;20192;-76
2023/10/28 16:19:42;;;;;;;3.20;1.60;;;;;12.50;98977.00;;;;10552386;28;20670;-75
2023/10/28 16:24:44;;;;;;;3.15;1.50;;;;;12.50;98983.00;;;;10547584;28;20634;-75
2023/10/28 16:29:46;;;;;;;6.68;2.00;;;;;12.40;98993.00;;;;10557039;28;20192;-75
2023/10/28 16:34:48;;;;;;;5.40;1.67;;;;;12.40;98989.00;;;;10551827;28;20574;-76
2023/10/28 16:39:52;;;;;;;1.83;1.23;;;;;12.40;98971.00;;;;10534745;28;20192;-75
2023/10/28 16:44:55;;;;;;;4.90;1.83;;;;;12.50;98968.00;;;;10545764;28;20234;-75
2023/10/28 16:49:56;;;;;;;2.72;1.38;;;;;12.50;98971.00;;;;10522087;28;20220;-75
2023/10/28 16:54:58;;;;;;;3.78;1.88;;;;;12.50;98963.00;;;;10526553;28;20783;-73
2023/10/28 17:00:00;;;;;;;3.92;1.77;;;;;12.50;98951.00;;;;10543894;28;20279;-73
2023/10/28 17:05:04;;;;;;;3.95;1.80;;;;;12.60;98953.00;;;;10539998;28;20188;-73
2023/10/28 17:10:07;;;;;;;4.32;1.50;;;;;12.60;98940.00;;;;10536086;28;20188;-72
2023/10/28 17:15:09;;;;;;;2.78;1.73;;;;;12.60;98937.00;;;;10533549;28;20185;-73
2023/10/28 17:20:11;;;;;;;3.20;1.60;;;;;12.60;98938.00;;;;10523034;28;20239;-73
2023/10/28 17:25:14;;;;;;;3.88;1.42;;;;;12.60;98934.00;;;;10523111;28;20233;-73
2023/10/28 17:30:16;;;;;;;2.28;1.95;;;;;12.60;98932.00;;;;10538830;28;20197;-73
2023/10/28 17:35:18;;;;;;;1.65;1.10;;;;;12.60;98912.00;;;;10543070;28;20201;-72
2023/10/28 17:40:22;;;;;;;2.28;1.30;;;;;12.60;98923.00;;;;10524561;28;20235;-73
2023/10/28 17:45:24;;;;;;;3.58;2.55;;;;;12.50;98925.00;;;;10540187;28;20204;-72
2023/10/28 17:50:26;;;;;;;2.47;1.30;;;;;12.30;98915.00;;;;10534472;28;20280;-74
2023/10/28 17:55:28;;;;;;;3.13;1.30;;;;;12.20;98920.00;;;;10534196;28;20197;-73
2023/10/28 18:00:31;;;;;;;2.70;1.60;;;;;12.00;98910.00;;;;10545280;28;20281;-74
2023/10/28 18:05:33;;;;;;;1.67;1.27;;;;;11.90;98897.00;;;;10546153;28;20302;-70
2023/10/28 18:10:35;;;;;;;3.88;1.88;;;;;11.90;98889.00;;;;10552325;28;20639;-70
2023/10/28 18:15:38;;;;;;;2.47;1.70;;;;;11.80;98884.00;;;;10525909;28;20790;-70
2023/10/28 18:20:42;;;;;;;3.80;1.50;;;;;11.80;98866.00;;;;10540544;27;20283;-71
2023/10/28 18:25:44;;;;;;;3.92;1.50;;;;;11.80;98866.00;;;;10545488;27;20192;-72
2023/10/28 18:30:46;;;;;;;3.35;1.38;;;;;11.80;98868.00;;;;10530052;27;20203;-72
2023/10/28 18:35:48;;;;;;;3.28;1.58;;;;;11.80;98865.00;;;;10549438;28;20230;-72
2023/10/28 18:40:50;;;;;;;2.35;1.33;;;;;11.90;98843.00;;;;10551445;28;20406;-72
2023/10/28 18:45:53;;;;;;;3.38;1.70;;;;;11.90;98829.00;;;;10534951;28;20686;-71
2023/10/28 18:50:55;;;;;;;3.47;1.40;;;;;11.90;98826.00;;;;10554642;28;20185;-72
2023/10/28 18:56:02;;;;;;;2.65;1.65;;;;;12.00;98823.00;;;;10532135;28;20203;-71
2023/10/28 19:01:05;;;;;;;2.33;1.50;;;;;12.00;98814.00;;;;10543162;28;20185;-70
2023/10/28 19:06:08;;;;;;;2.05;1.25;;;;;12.00;98811.00;;;;10543691;28;20237;-70
2023/10/28 19:11:10;;;;;;;3.38;1.20;;;;;12.00;98801.00;;;;10552788;28;20587;-73
2023/10/28 19:16:12;;;;;;;3.35;1.40;;;;;12.00;98805.00;;;;10542405;28;20594;-75
2023/10/28 19:21:14;;;;;;;2.60;1.63;;;;;12.00;98780.00;;;;10545355;28;20196;-74
2023/10/28 19:26:16;;;;;;;2.00;1.20;;;;;12.00;98779.00;;;;10536812;28;20273;-74
2023/10/28 19:31:18;;;;;;;2.13;1.23;;;;;11.90;98772.00;;;;10535040;28;20275;-75
2023/10/28 19:36:19;;;;;;;1.70;1.23;;;;;11.90;98768.00;;;;10550472;28;20204;-74
2023/10/28 19:41:25;;;;;;;2.83;1.00;;;;;12.00;98754.00;;;;10549557;28;20191;-75
2023/10/28 19:46:27;;;;;;;1.25;1.13;;;;;12.00;98752.00;;;;10518950;28;20681;-74
2023/10/28 19:51:29;;;;;;;3.95;1.40;;;;;12.00;98758.00;;;;10544802;28;20578;-73
2023/10/28 19:56:31;;;;;;;3.03;1.65;;;;;12.00;98745.00;;;;10533622;28;20216;-73
2023/10/28 20:01:33;;;;;;;4.82;1.90;;;;;12.00;98725.00;;;;10524660;28;20192;-74
2023/10/28 20:06:35;;;;;;;4.45;2.10;;;;;12.00;98732.00;;;;10525674;28;20196;-74
2023/10/28 20:11:37;;;;;;;3.08;2.13;;;;;12.10;98726.00;;;;10551467;28;20728;-75
2023/10/28 20:16:39;;;;;;;4.35;2.03;;;;;12.10;98726.00;;;;10532297;28;20200;-75
2023/10/28 20:21:40;;;;;;;3.15;1.60;;;;;12.10;98712.00;;;;10554039;28;20314;-73
2023/10/28 20:26:43;;;;;;;5.47;1.80;;;;;12.10;98707.00;;;;10534724;28;20236;-73
2023/10/28 20:31:45;;;;;;;4.35;1.83;;;;;12.20;98706.00;;;;10546064;28;20188;-73
2023/10/28 20:36:46;;;;;;;2.13;1.45;;;;;12.20;98706.00;;;;10535294;28;20299;-74
2023/10/28 20:41:48;;;;;;;5.32;1.60;;;;;12.30;98689.00;;;;10544432;28;20284;-73
2023/10/28 20:46:50;;;;;;;2.42;1.40;;;;;12.30;98661.00;;;;10525637;28;20213;-73
2023/10/28 20:51:52;;;;;;;4.43;1.50;;;;;12.30;98651.00;;;;10536271;28;20303;-73
2023/10/28 20:56:55;;;;;;;4.40;1.35;;;;;12.30;98631.00;;;;10552324;28;20203;-73
2023/10/28 21:01:57;;;;;;;2.95;1.13;;;;;12.30;98612.00;;;;10546102;28;20181;-73
2023/10/28 21:07:00;;;;;;;5.20;1.80;;;;;12.30;98596.00;;;;10533263;28;20223;-73
2023/10/28 21:12:03;;;;;;;4.32;1.40;;;;;12.30;98591.00;;;;10525114;28;20207;-73
2023/10/28 21:17:08;;;;;;;3.35;1.38;;;;;12.30;98600.00;;;;10532024;28;20185;-73
2023/10/28 21:22:09;;;;;;;3.72;1.58;;;;;12.30;98587.00;;;;10546153;28;20299;-73
2023/10/28 21:27:11;;;;;;;2.45;1.20;;;;;12.30;98575.00;;;;10549299;28;20204;-73
2023/10/28 21:32:13;;;;;;;2.63;1.30;;;;;12.30;98580.00;;;;10555696;28;20189;-72
2023/10/28 21:37:15;;;;;;;2.65;1.30;;;;;12.40;98566.00;;;;10555292;28;20256;-72
2023/10/28 21:42:18;;;;;;;3.05;1.30;;;;;12.40;98558.00;;;;10543533;28;20247;-73
2023/10/28 21:47:20;;;;;;;5.20;1.40;;;;;12.50;98558.00;;;;10558362;28;20893;-72
2023/10/28 21:52:22;;;;;;;3.38;1.52;;;;;12.60;98525.00;;;;10537465;28;20192;-73
2023/10/28 21:57:25;;;;;;;4.50;1.48;;;;;12.70;98540.00;;;;10537603;28;20198;-73
2023/10/28 22:02:29;;;;;;;4.53;1.45;;;;;12.90;98521.00;;;;10555611;28;20255;-72
2023/10/28 22:07:31;;;;;;;2.75;1.58;;;;;13.00;98549.00;;;;10551801;28;20291;-72
2023/10/28 22:12:33;;;;;;;2.55;1.30;;;;;13.10;98534.00;;;;10554265;28;20291;-73
2023/10/28 22:17:34;;;;;;;3.35;2.00;;;;;13.20;98521.00;;;;10539274;28;20251;-73
2023/10/28 22:22:37;;;;;;;2.90;1.20;;;;;13.30;98535.00;;;;10551708;28;20211;-73
2023/10/28 22:27:39;;;;;;;3.45;1.25;;;;;13.40;98518.00;;;;10551515;28;20202;-73
2023/10/28 22:32:41;;;;;;;1.65;0.88;;;;;13.40;98523.00;;;;10556575;28;20199;-72
2023/10/28 22:37:43;;;;;;;6.63;0.90;;;;;13.50;98505.00;;;;10557361;28;20195;-72
2023/10/28 22:42:45;;;;;;;8.32;1.08;;;;;13.60;98525.00;;;;10560453;28;20267;-71
2023/10/28 22:47:47;;;;;;;2.58;1.33;;;;;13.60;98506.00;;;;10534733;28;20311;-71
2023/10/28 22:52:49;;;;;;;4.90;1.30;;;;;13.70;98513.00;;;;10536104;28;20191;-71
2023/10/28 22:57:51;;;;;;;5.63;1.15;;;;;13.80;98511.00;;;;10550039;28;20279;-72
2023/10/28 23:02:53;;;;;;;1.85;0.85;;;;;13.80;98518.00;;;;10550048;28;20278;-70
2023/10/28 23:07:57;;;;;;;2.50;0.90;;;;;13.90;98512.00;;;;10544952;28;20201;-71
2023/10/28 23:12:59;;;;;;;3.03;0.90;;;;;13.90;98528.00;;;;10546386;28;20238;-70
2023/10/28 23:18:01;;;;;;;2.45;0.90;;;;;13.90;98523.00;;;;10550209;28;20196;-72
2023/10/28 23:23:03;;;;;;;3.95;0.98;;;;;13.90;98520.00;;;;10525714;28;20209;-70
2023/10/28 23:28:05;;;;;;;4.38;0.90;;;;;14.00;98534.00;;;;10547876;28;20662;-70
2023/10/28 23:33:07;;;;;;;4.85;0.93;;;;;14.00;98548.00;;;;10544681;28;20192;-69
2023/10/28 23:38:09;;;;;;;1.35;0.88;;;;;14.10;98535.00;;;;10549454;28;20557;-71
2023/10/28 23:43:10;;;;;;;2.10;0.80;;;;;14.10;98516.00;;;;10531553;28;20280;-70
2023/10/28 23:48:13;;;;;;;4.05;0.70;;;;;14.10;98501.00;;;;10538222;28;20299;-71
2023/10/28 23:53:15;;;;;;;4.90;1.05;;;;;14.00;98492.00;;;;10530665;28;20191;-71
2023/10/28 23:58:17;;;;;;;1.55;0.98;;;;;13.90;98436.00;;;;10533467;28;20181;-71
